LIBN/LCC METAR and TAF weather

Enter ICAO airport designator
Station Type Date Time Source
LIBN METAR 2019/11/18 13:55 UTC NOAA

LIBN 181355Z 12006KT 9999 SCT030 18/14 Q1018


Station Type Date Time Source
LIBN Decoded METAR 2019/11/18 13:55 UTC NOAA

Lecce, Italy (LIBN) 40-14N 018-09E 61M
Nov 18, 2019 - 08:55 AM EST / 2019.11.18 1355 UTC
Wind: from the ESE (120 degrees) at 7 MPH (6 KT):0
Visibility: greater than 7 mile(s):0
Sky conditions: partly cloudy
Temperature: 64 F (18 C)
Dew Point: 57 F (14 C)
Relative Humidity: 77%
Pressure (altimeter): 30.06 in. Hg (1018 hPa)
ob: LIBN 181355Z 12006KT 9999 SCT030 18/14 Q1018
cycle: 14

Station Type Date Time Source
LIBN TAF 2019/10/29 12:24 UTC NOAA

TAF TAF LIBN 291100Z 2912/2924 20005KT 9999 FEW025
BECMG 2917/2918 3000 BR

Example: see airport list